sensor_id;sensor_type;location;lat;lon;timestamp;temperature;humidity
2100;DHT22;1055;48.854;9.302;2024-01-30T00:02:16;4.90;99.90
2100;DHT22;1055;48.854;9.302;2024-01-30T00:04:41;5.10;99.90
2100;DHT22;1055;48.854;9.302;2024-01-30T00:07:07;5.10;99.90
2100;DHT22;1055;48.854;9.302;2024-01-30T00:09:33;4.80;99.90
2100;DHT22;1055;48.854;9.302;2024-01-30T00:11:58;4.90;99.90
2100;DHT22;1055;48.854;9.302;2024-01-30T00:14:24;4.70;99.90
2100;DHT22;1055;48.854;9.302;2024-01-30T00:16:51;4.80;99.90
2100;DHT22;1055;48.854;9.302;2024-01-30T00:19:16;4.90;99.90
2100;DHT22;1055;48.854;9.302;2024-01-30T00:21:42;5.00;99.90
2100;DHT22;1055;48.854;9.302;2024-01-30T00:24:08;4.70;99.90
2100;DHT22;1055;48.854;9.302;2024-01-30T00:26:33;3.90;99.90
2100;DHT22;1055;48.854;9.302;2024-01-30T00:28:59;3.60;99.90
2100;DHT22;1055;48.854;9.302;2024-01-30T00:31:25;3.40;99.90
2100;DHT22;1055;48.854;9.302;2024-01-30T00:33:51;3.30;99.90
2100;DHT22;1055;48.854;9.302;2024-01-30T00:36:16;3.20;99.90
2100;DHT22;1055;48.854;9.302;2024-01-30T00:38:42;3.00;99.90
2100;DHT22;1055;48.854;9.302;2024-01-30T00:41:08;3.10;99.90
2100;DHT22;1055;48.854;9.302;2024-01-30T00:43:34;2.90;99.90
2100;DHT22;1055;48.854;9.302;2024-01-30T00:46:00;3.20;99.90
2100;DHT22;1055;48.854;9.302;2024-01-30T00:48:26;3.00;99.90
2100;DHT22;1055;48.854;9.302;2024-01-30T00:50:51;2.80;99.90
2100;DHT22;1055;48.854;9.302;2024-01-30T00:53:17;2.90;99.90
2100;DHT22;1055;48.854;9.302;2024-01-30T00:55:43;2.70;99.90
2100;DHT22;1055;48.854;9.302;2024-01-30T00:58:08;2.70;99.90
2100;DHT22;1055;48.854;9.302;2024-01-30T01:00:34;2.50;99.90
2100;DHT22;1055;48.854;9.302;2024-01-30T01:03:00;2.50;99.90
2100;DHT22;1055;48.854;9.302;2024-01-30T01:05:25;2.70;99.90
2100;DHT22;1055;48.854;9.302;2024-01-30T01:07:51;3.30;99.90
2100;DHT22;1055;48.854;9.302;2024-01-30T01:10:17;3.70;99.90
2100;DHT22;1055;48.854;9.302;2024-01-30T01:12:44;3.90;99.90
2100;DHT22;1055;48.854;9.302;2024-01-30T01:15:10;4.10;99.90
2100;DHT22;1055;48.854;9.302;2024-01-30T01:17:36;4.30;99.90
2100;DHT22;1055;48.854;9.302;2024-01-30T01:20:02;4.40;99.90
2100;DHT22;1055;48.854;9.302;2024-01-30T01:22:28;4.30;99.90
2100;DHT22;1055;48.854;9.302;2024-01-30T01:24:54;4.50;99.90
2100;DHT22;1055;48.854;9.302;2024-01-30T01:27:19;4.60;99.90
2100;DHT22;1055;48.854;9.302;2024-01-30T01:29:45;4.70;99.90
2100;DHT22;1055;48.854;9.302;2024-01-30T01:32:11;4.60;99.90
2100;DHT22;1055;48.854;9.302;2024-01-30T01:34:36;4.30;99.90
2100;DHT22;1055;48.854;9.302;2024-01-30T01:37:02;3.60;99.90
2100;DHT22;1055;48.854;9.302;2024-01-30T01:39:27;3.40;99.90
2100;DHT22;1055;48.854;9.302;2024-01-30T01:41:53;3.60;99.90
2100;DHT22;1055;48.854;9.302;2024-01-30T01:44:19;3.00;99.90
2100;DHT22;1055;48.854;9.302;2024-01-30T01:46:44;3.30;99.90
2100;DHT22;1055;48.854;9.302;2024-01-30T01:49:10;3.70;99.90
2100;DHT22;1055;48.854;9.302;2024-01-30T01:51:36;3.90;99.90
2100;DHT22;1055;48.854;9.302;2024-01-30T01:54:04;3.40;99.90
2100;DHT22;1055;48.854;9.302;2024-01-30T01:56:31;3.50;99.90
2100;DHT22;1055;48.854;9.302;2024-01-30T01:59:00;3.80;99.90
2100;DHT22;1055;48.854;9.302;2024-01-30T02:01:31;4.10;99.90
2100;DHT22;1055;48.854;9.302;2024-01-30T02:03:58;4.10;99.90
2100;DHT22;1055;48.854;9.302;2024-01-30T02:06:24;3.80;99.90
2100;DHT22;1055;48.854;9.302;2024-01-30T02:08:49;4.00;99.90
2100;DHT22;1055;48.854;9.302;2024-01-30T02:11:15;4.00;99.90
2100;DHT22;1055;48.854;9.302;2024-01-30T02:13:42;4.20;99.90
2100;DHT22;1055;48.854;9.302;2024-01-30T02:16:08;3.80;99.90
2100;DHT22;1055;48.854;9.302;2024-01-30T02:18:33;4.10;99.90
2100;DHT22;1055;48.854;9.302;2024-01-30T02:21:03;4.30;99.90
2100;DHT22;1055;48.854;9.302;2024-01-30T02:23:30;4.30;99.90
2100;DHT22;1055;48.854;9.302;2024-01-30T02:25:56;4.30;99.90
2100;DHT22;1055;48.854;9.302;2024-01-30T02:28:22;4.00;99.90
2100;DHT22;1055;48.854;9.302;2024-01-30T02:30:47;4.10;99.90
2100;DHT22;1055;48.854;9.302;2024-01-30T02:33:13;4.30;99.90
2100;DHT22;1055;48.854;9.302;2024-01-30T02:35:39;4.30;99.90
2100;DHT22;1055;48.854;9.302;2024-01-30T02:38:04;4.40;99.90
2100;DHT22;1055;48.854;9.302;2024-01-30T02:40:31;4.50;99.90
2100;DHT22;1055;48.854;9.302;2024-01-30T02:42:57;4.30;99.90
2100;DHT22;1055;48.854;9.302;2024-01-30T02:45:23;4.30;99.90
2100;DHT22;1055;48.854;9.302;2024-01-30T02:47:48;4.30;99.90
2100;DHT22;1055;48.854;9.302;2024-01-30T02:50:14;3.80;99.90
2100;DHT22;1055;48.854;9.302;2024-01-30T02:52:40;3.30;99.90
2100;DHT22;1055;48.854;9.302;2024-01-30T02:55:06;3.00;99.90
2100;DHT22;1055;48.854;9.302;2024-01-30T02:57:32;2.90;99.90
2100;DHT22;1055;48.854;9.302;2024-01-30T02:59:57;3.00;99.90
2100;DHT22;1055;48.854;9.302;2024-01-30T03:02:23;2.60;99.90
2100;DHT22;1055;48.854;9.302;2024-01-30T03:04:48;2.50;99.90
2100;DHT22;1055;48.854;9.302;2024-01-30T03:07:14;2.60;99.90
2100;DHT22;1055;48.854;9.302;2024-01-30T03:09:41;2.50;99.90
2100;DHT22;1055;48.854;9.302;2024-01-30T03:12:10;2.50;99.90
2100;DHT22;1055;48.854;9.302;2024-01-30T03:14:36;2.50;99.90
2100;DHT22;1055;48.854;9.302;2024-01-30T03:17:01;2.50;99.90
2100;DHT22;1055;48.854;9.302;2024-01-30T03:19:28;2.50;99.90
2100;DHT22;1055;48.854;9.302;2024-01-30T03:21:53;2.50;99.90
2100;DHT22;1055;48.854;9.302;2024-01-30T03:24:19;2.90;99.90
2100;DHT22;1055;48.854;9.302;2024-01-30T03:26:44;3.30;99.90
2100;DHT22;1055;48.854;9.302;2024-01-30T03:29:10;3.50;99.90
2100;DHT22;1055;48.854;9.302;2024-01-30T03:31:36;3.70;99.90
2100;DHT22;1055;48.854;9.302;2024-01-30T03:34:01;3.80;99.90
2100;DHT22;1055;48.854;9.302;2024-01-30T03:36:27;4.00;99.90
2100;DHT22;1055;48.854;9.302;2024-01-30T03:38:53;4.10;99.90
2100;DHT22;1055;48.854;9.302;2024-01-30T03:41:19;4.20;99.90
2100;DHT22;1055;48.854;9.302;2024-01-30T03:43:44;4.20;99.90
2100;DHT22;1055;48.854;9.302;2024-01-30T03:46:12;4.20;99.90
2100;DHT22;1055;48.854;9.302;2024-01-30T03:48:37;4.30;99.90
2100;DHT22;1055;48.854;9.302;2024-01-30T03:51:03;4.30;99.90
2100;DHT22;1055;48.854;9.302;2024-01-30T03:53:29;4.20;99.90
2100;DHT22;1055;48.854;9.302;2024-01-30T03:55:55;4.20;99.90
2100;DHT22;1055;48.854;9.302;2024-01-30T03:58:20;4.00;99.90
2100;DHT22;1055;48.854;9.302;2024-01-30T04:00:46;3.90;99.90
2100;DHT22;1055;48.854;9.302;2024-01-30T04:03:12;3.90;99.90
2100;DHT22;1055;48.854;9.302;2024-01-30T04:05:37;4.00;99.90
2100;DHT22;1055;48.854;9.302;2024-01-30T04:08:03;3.90;99.90
2100;DHT22;1055;48.854;9.302;2024-01-30T04:10:28;3.90;99.90
2100;DHT22;1055;48.854;9.302;2024-01-30T04:12:54;3.90;99.90
2100;DHT22;1055;48.854;9.302;2024-01-30T04:15:20;3.90;99.90
2100;DHT22;1055;48.854;9.302;2024-01-30T04:17:45;3.90;99.90
2100;DHT22;1055;48.854;9.302;2024-01-30T04:20:17;3.90;99.90
2100;DHT22;1055;48.854;9.302;2024-01-30T04:22:46;3.90;99.90
2100;DHT22;1055;48.854;9.302;2024-01-30T04:25:13;3.90;99.90
2100;DHT22;1055;48.854;9.302;2024-01-30T04:27:38;3.90;99.90
2100;DHT22;1055;48.854;9.302;2024-01-30T04:30:05;3.80;99.90
2100;DHT22;1055;48.854;9.302;2024-01-30T04:32:31;3.80;99.90
2100;DHT22;1055;48.854;9.302;2024-01-30T04:34:56;3.90;99.90
2100;DHT22;1055;48.854;9.302;2024-01-30T04:37:22;3.90;99.90
2100;DHT22;1055;48.854;9.302;2024-01-30T04:39:48;3.80;99.90
2100;DHT22;1055;48.854;9.302;2024-01-30T04:42:13;3.80;99.90
2100;DHT22;1055;48.854;9.302;2024-01-30T04:44:39;4.00;99.90
2100;DHT22;1055;48.854;9.302;2024-01-30T04:47:04;4.50;99.90
2100;DHT22;1055;48.854;9.302;2024-01-30T04:49:31;4.60;99.90
2100;DHT22;1055;48.854;9.302;2024-01-30T04:51:57;4.40;99.90
2100;DHT22;1055;48.854;9.302;2024-01-30T04:54:23;3.90;99.90
2100;DHT22;1055;48.854;9.302;2024-01-30T04:56:48;3.20;99.90
2100;DHT22;1055;48.854;9.302;2024-01-30T04:59:14;2.70;99.90
2100;DHT22;1055;48.854;9.302;2024-01-30T05:01:39;2.40;99.90
2100;DHT22;1055;48.854;9.302;2024-01-30T05:04:07;2.10;99.90
2100;DHT22;1055;48.854;9.302;2024-01-30T05:06:33;2.00;99.90
2100;DHT22;1055;48.854;9.302;2024-01-30T05:08:59;1.70;99.90
2100;DHT22;1055;48.854;9.302;2024-01-30T05:11:24;1.60;99.90
2100;DHT22;1055;48.854;9.302;2024-01-30T05:13:50;1.50;99.90
2100;DHT22;1055;48.854;9.302;2024-01-30T05:16:15;1.50;99.90
2100;DHT22;1055;48.854;9.302;2024-01-30T05:18:41;1.50;99.90
2100;DHT22;1055;48.854;9.302;2024-01-30T05:21:06;1.60;99.90
2100;DHT22;1055;48.854;9.302;2024-01-30T05:23:32;1.80;99.90
2100;DHT22;1055;48.854;9.302;2024-01-30T05:25:57;1.90;99.90
2100;DHT22;1055;48.854;9.302;2024-01-30T05:28:26;2.00;99.90
2100;DHT22;1055;48.854;9.302;2024-01-30T05:30:51;1.90;99.90
2100;DHT22;1055;48.854;9.302;2024-01-30T05:33:17;1.70;99.90
2100;DHT22;1055;48.854;9.302;2024-01-30T05:35:42;1.70;99.90
2100;DHT22;1055;48.854;9.302;2024-01-30T05:38:08;1.50;99.90
2100;DHT22;1055;48.854;9.302;2024-01-30T05:40:34;1.40;99.90
2100;DHT22;1055;48.854;9.302;2024-01-30T05:42:59;1.40;99.90
2100;DHT22;1055;48.854;9.302;2024-01-30T05:45:26;1.40;99.90
2100;DHT22;1055;48.854;9.302;2024-01-30T05:47:52;1.50;99.90
2100;DHT22;1055;48.854;9.302;2024-01-30T05:50:18;1.50;99.90
2100;DHT22;1055;48.854;9.302;2024-01-30T05:52:44;1.50;99.90
2100;DHT22;1055;48.854;9.302;2024-01-30T05:55:10;1.50;99.90
2100;DHT22;1055;48.854;9.302;2024-01-30T05:57:37;1.70;99.90
2100;DHT22;1055;48.854;9.302;2024-01-30T06:00:03;1.60;99.90
2100;DHT22;1055;48.854;9.302;2024-01-30T06:02:29;1.50;99.90
2100;DHT22;1055;48.854;9.302;2024-01-30T06:04:55;1.70;99.90
2100;DHT22;1055;48.854;9.302;2024-01-30T06:07:20;1.90;99.90
2100;DHT22;1055;48.854;9.302;2024-01-30T06:09:47;2.10;99.90
2100;DHT22;1055;48.854;9.302;2024-01-30T06:12:13;2.00;99.90
2100;DHT22;1055;48.854;9.302;2024-01-30T06:14:38;1.90;99.90
2100;DHT22;1055;48.854;9.302;2024-01-30T06:17:04;1.90;99.90
2100;DHT22;1055;48.854;9.302;2024-01-30T06:19:30;1.90;99.90
2100;DHT22;1055;48.854;9.302;2024-01-30T06:21:59;1.90;99.90
2100;DHT22;1055;48.854;9.302;2024-01-30T06:24:24;1.70;99.90
2100;DHT22;1055;48.854;9.302;2024-01-30T06:26:50;1.70;99.90
2100;DHT22;1055;48.854;9.302;2024-01-30T06:29:15;2.00;99.90
2100;DHT22;1055;48.854;9.302;2024-01-30T06:31:42;2.50;99.90
2100;DHT22;1055;48.854;9.302;2024-01-30T06:34:08;2.80;99.90
2100;DHT22;1055;48.854;9.302;2024-01-30T06:36:34;3.00;99.90
2100;DHT22;1055;48.854;9.302;2024-01-30T06:39:00;3.10;99.90
2100;DHT22;1055;48.854;9.302;2024-01-30T06:41:25;3.30;99.90
2100;DHT22;1055;48.854;9.302;2024-01-30T06:43:51;3.30;99.90
2100;DHT22;1055;48.854;9.302;2024-01-30T06:46:17;3.30;99.90
2100;DHT22;1055;48.854;9.302;2024-01-30T06:48:42;2.80;99.90
2100;DHT22;1055;48.854;9.302;2024-01-30T06:51:10;2.50;99.90
2100;DHT22;1055;48.854;9.302;2024-01-30T06:53:36;2.40;99.90
2100;DHT22;1055;48.854;9.302;2024-01-30T06:56:02;1.90;99.90
2100;DHT22;1055;48.854;9.302;2024-01-30T06:58:27;1.90;99.90
2100;DHT22;1055;48.854;9.302;2024-01-30T07:00:53;1.50;99.90
2100;DHT22;1055;48.854;9.302;2024-01-30T07:03:19;1.30;99.90
2100;DHT22;1055;48.854;9.302;2024-01-30T07:05:45;1.30;99.90
2100;DHT22;1055;48.854;9.302;2024-01-30T07:08:10;1.40;99.90
2100;DHT22;1055;48.854;9.302;2024-01-30T07:10:36;1.70;99.90
2100;DHT22;1055;48.854;9.302;2024-01-30T07:13:02;1.70;99.90
2100;DHT22;1055;48.854;9.302;2024-01-30T07:15:27;1.40;99.90
2100;DHT22;1055;48.854;9.302;2024-01-30T07:17:53;1.40;99.90
2100;DHT22;1055;48.854;9.302;2024-01-30T07:20:18;1.40;99.90
2100;DHT22;1055;48.854;9.302;2024-01-30T07:22:45;1.40;99.90
2100;DHT22;1055;48.854;9.302;2024-01-30T07:25:11;1.50;99.90
2100;DHT22;1055;48.854;9.302;2024-01-30T07:27:37;1.50;99.90
2100;DHT22;1055;48.854;9.302;2024-01-30T07:30:03;1.70;99.90
2100;DHT22;1055;48.854;9.302;2024-01-30T07:32:28;1.70;99.90
2100;DHT22;1055;48.854;9.302;2024-01-30T07:34:54;2.00;99.90
2100;DHT22;1055;48.854;9.302;2024-01-30T07:37:19;2.40;99.90
2100;DHT22;1055;48.854;9.302;2024-01-30T07:39:45;2.70;99.90
2100;DHT22;1055;48.854;9.302;2024-01-30T07:42:10;3.00;99.90
2100;DHT22;1055;48.854;9.302;2024-01-30T07:44:36;3.20;99.90
2100;DHT22;1055;48.854;9.302;2024-01-30T07:47:01;3.40;99.90
2100;DHT22;1055;48.854;9.302;2024-01-30T07:49:28;3.40;99.90
2100;DHT22;1055;48.854;9.302;2024-01-30T07:51:53;3.60;99.90
2100;DHT22;1055;48.854;9.302;2024-01-30T07:54:19;3.60;99.90
2100;DHT22;1055;48.854;9.302;2024-01-30T07:56:45;3.60;99.90
2100;DHT22;1055;48.854;9.302;2024-01-30T07:59:11;3.50;99.90
2100;DHT22;1055;48.854;9.302;2024-01-30T08:01:37;3.60;99.90
2100;DHT22;1055;48.854;9.302;2024-01-30T08:04:02;3.60;99.90
2100;DHT22;1055;48.854;9.302;2024-01-30T08:06:28;3.70;99.90
2100;DHT22;1055;48.854;9.302;2024-01-30T08:08:54;3.40;99.90
2100;DHT22;1055;48.854;9.302;2024-01-30T08:11:22;3.60;99.90
2100;DHT22;1055;48.854;9.302;2024-01-30T08:13:54;3.30;99.90
2100;DHT22;1055;48.854;9.302;2024-01-30T08:16:19;2.90;99.90
2100;DHT22;1055;48.854;9.302;2024-01-30T08:18:45;2.70;99.90
2100;DHT22;1055;48.854;9.302;2024-01-30T08:21:11;2.80;99.90
2100;DHT22;1055;48.854;9.302;2024-01-30T08:23:41;2.70;99.90
2100;DHT22;1055;48.854;9.302;2024-01-30T08:26:07;2.70;99.90
2100;DHT22;1055;48.854;9.302;2024-01-30T08:28:32;3.00;99.90
2100;DHT22;1055;48.854;9.302;2024-01-30T08:30:58;2.90;99.90
2100;DHT22;1055;48.854;9.302;2024-01-30T08:33:24;2.90;99.90
2100;DHT22;1055;48.854;9.302;2024-01-30T08:35:49;3.10;99.90
2100;DHT22;1055;48.854;9.302;2024-01-30T08:38:15;3.00;99.90
2100;DHT22;1055;48.854;9.302;2024-01-30T08:40:40;3.10;99.90
2100;DHT22;1055;48.854;9.302;2024-01-30T08:43:06;3.40;99.90
2100;DHT22;1055;48.854;9.302;2024-01-30T08:45:31;3.30;99.90
2100;DHT22;1055;48.854;9.302;2024-01-30T08:47:57;3.40;99.90
2100;DHT22;1055;48.854;9.302;2024-01-30T08:50:22;3.80;99.90
2100;DHT22;1055;48.854;9.302;2024-01-30T08:52:48;4.30;99.90
2100;DHT22;1055;48.854;9.302;2024-01-30T08:55:14;4.30;99.90
2100;DHT22;1055;48.854;9.302;2024-01-30T08:57:39;4.50;99.90
2100;DHT22;1055;48.854;9.302;2024-01-30T09:00:05;4.90;99.90
2100;DHT22;1055;48.854;9.302;2024-01-30T09:02:34;5.20;99.90
2100;DHT22;1055;48.854;9.302;2024-01-30T09:05:00;5.40;99.90
2100;DHT22;1055;48.854;9.302;2024-01-30T09:07:26;5.60;99.90
2100;DHT22;1055;48.854;9.302;2024-01-30T09:09:51;5.90;99.90
2100;DHT22;1055;48.854;9.302;2024-01-30T09:12:17;6.00;99.90
2100;DHT22;1055;48.854;9.302;2024-01-30T09:14:42;6.20;99.90
2100;DHT22;1055;48.854;9.302;2024-01-30T09:17:08;6.40;99.90
2100;DHT22;1055;48.854;9.302;2024-01-30T09:19:34;6.60;99.90
2100;DHT22;1055;48.854;9.302;2024-01-30T09:21:59;6.80;99.90
2100;DHT22;1055;48.854;9.302;2024-01-30T09:24:26;6.90;99.90
2100;DHT22;1055;48.854;9.302;2024-01-30T09:26:52;7.10;99.90
2100;DHT22;1055;48.854;9.302;2024-01-30T09:29:17;7.00;99.90
2100;DHT22;1055;48.854;9.302;2024-01-30T09:31:46;7.00;99.90
2100;DHT22;1055;48.854;9.302;2024-01-30T09:34:12;7.00;99.90
2100;DHT22;1055;48.854;9.302;2024-01-30T09:36:38;7.10;99.90
2100;DHT22;1055;48.854;9.302;2024-01-30T09:39:03;7.10;99.90
2100;DHT22;1055;48.854;9.302;2024-01-30T09:41:32;7.10;99.90
2100;DHT22;1055;48.854;9.302;2024-01-30T09:43:59;7.10;99.90
2100;DHT22;1055;48.854;9.302;2024-01-30T09:46:28;7.20;99.90
2100;DHT22;1055;48.854;9.302;2024-01-30T09:48:57;7.20;99.90
2100;DHT22;1055;48.854;9.302;2024-01-30T09:51:24;7.00;99.90
2100;DHT22;1055;48.854;9.302;2024-01-30T09:53:50;7.20;99.90
2100;DHT22;1055;48.854;9.302;2024-01-30T09:56:16;7.30;99.90
2100;DHT22;1055;48.854;9.302;2024-01-30T09:58:42;7.20;99.90
2100;DHT22;1055;48.854;9.302;2024-01-30T10:01:08;6.90;99.90
2100;DHT22;1055;48.854;9.302;2024-01-30T10:03:33;6.90;99.90
2100;DHT22;1055;48.854;9.302;2024-01-30T10:05:59;6.70;99.90
2100;DHT22;1055;48.854;9.302;2024-01-30T10:08:26;7.10;99.90
2100;DHT22;1055;48.854;9.302;2024-01-30T10:10:52;7.40;99.90
2100;DHT22;1055;48.854;9.302;2024-01-30T10:13:18;7.60;99.90
2100;DHT22;1055;48.854;9.302;2024-01-30T10:15:44;7.60;99.90
2100;DHT22;1055;48.854;9.302;2024-01-30T10:18:10;7.70;99.90
2100;DHT22;1055;48.854;9.302;2024-01-30T10:20:36;7.90;99.90
2100;DHT22;1055;48.854;9.302;2024-01-30T10:23:03;7.90;99.90
2100;DHT22;1055;48.854;9.302;2024-01-30T10:25:30;8.10;99.90
2100;DHT22;1055;48.854;9.302;2024-01-30T10:27:56;8.20;99.90
2100;DHT22;1055;48.854;9.302;2024-01-30T10:30:22;8.40;99.90
2100;DHT22;1055;48.854;9.302;2024-01-30T10:32:48;8.50;99.90
2100;DHT22;1055;48.854;9.302;2024-01-30T10:35:15;8.30;99.90
2100;DHT22;1055;48.854;9.302;2024-01-30T10:37:43;8.40;99.90
2100;DHT22;1055;48.854;9.302;2024-01-30T10:40:11;8.40;99.90
2100;DHT22;1055;48.854;9.302;2024-01-30T10:42:45;8.70;99.90
2100;DHT22;1055;48.854;9.302;2024-01-30T10:45:12;8.80;99.90
2100;DHT22;1055;48.854;9.302;2024-01-30T10:47:40;8.90;99.90
2100;DHT22;1055;48.854;9.302;2024-01-30T10:50:08;9.20;99.90
2100;DHT22;1055;48.854;9.302;2024-01-30T10:52:34;9.10;99.90
2100;DHT22;1055;48.854;9.302;2024-01-30T10:55:00;9.10;99.90
2100;DHT22;1055;48.854;9.302;2024-01-30T10:57:27;9.40;99.90
2100;DHT22;1055;48.854;9.302;2024-01-30T10:59:57;9.60;99.90
2100;DHT22;1055;48.854;9.302;2024-01-30T11:02:24;9.70;99.90
2100;DHT22;1055;48.854;9.302;2024-01-30T11:04:58;9.60;99.90
2100;DHT22;1055;48.854;9.302;2024-01-30T11:07:26;9.60;99.90
2100;DHT22;1055;48.854;9.302;2024-01-30T11:10:03;9.70;99.90
2100;DHT22;1055;48.854;9.302;2024-01-30T11:12:31;9.90;99.90
2100;DHT22;1055;48.854;9.302;2024-01-30T11:15:14;10.10;99.90
2100;DHT22;1055;48.854;9.302;2024-01-30T11:20:30;10.30;99.90
2100;DHT22;1055;48.854;9.302;2024-01-30T11:22:59;10.50;99.90
2100;DHT22;1055;48.854;9.302;2024-01-30T11:25:27;10.60;99.90
2100;DHT22;1055;48.854;9.302;2024-01-30T11:27:55;10.70;99.90
2100;DHT22;1055;48.854;9.302;2024-01-30T11:30:28;10.80;99.90
2100;DHT22;1055;48.854;9.302;2024-01-30T11:33:05;10.90;99.90
2100;DHT22;1055;48.854;9.302;2024-01-30T11:35:35;10.80;99.90
2100;DHT22;1055;48.854;9.302;2024-01-30T11:38:03;10.90;99.90
2100;DHT22;1055;48.854;9.302;2024-01-30T11:40:29;11.00;99.90
2100;DHT22;1055;48.854;9.302;2024-01-30T11:42:56;11.10;99.90
2100;DHT22;1055;48.854;9.302;2024-01-30T11:45:23;11.30;99.90
2100;DHT22;1055;48.854;9.302;2024-01-30T11:47:49;11.20;99.90
2100;DHT22;1055;48.854;9.302;2024-01-30T11:50:15;11.30;99.90
2100;DHT22;1055;48.854;9.302;2024-01-30T11:52:40;11.40;99.90
2100;DHT22;1055;48.854;9.302;2024-01-30T11:55:07;11.40;99.90
2100;DHT22;1055;48.854;9.302;2024-01-30T11:57:33;11.50;99.90
2100;DHT22;1055;48.854;9.302;2024-01-30T12:00:00;11.50;99.90
2100;DHT22;1055;48.854;9.302;2024-01-30T12:02:26;11.50;99.90
2100;DHT22;1055;48.854;9.302;2024-01-30T12:04:52;11.60;99.90
2100;DHT22;1055;48.854;9.302;2024-01-30T12:07:18;11.60;99.90
2100;DHT22;1055;48.854;9.302;2024-01-30T12:09:52;11.60;99.90
2100;DHT22;1055;48.854;9.302;2024-01-30T12:12:20;11.30;99.90
2100;DHT22;1055;48.854;9.302;2024-01-30T12:14:46;11.50;99.90
2100;DHT22;1055;48.854;9.302;2024-01-30T12:17:29;11.60;99.90
2100;DHT22;1055;48.854;9.302;2024-01-30T12:20:15;11.60;99.90
2100;DHT22;1055;48.854;9.302;2024-01-30T12:22:46;11.70;99.90
2100;DHT22;1055;48.854;9.302;2024-01-30T12:25:17;11.70;99.90
2100;DHT22;1055;48.854;9.302;2024-01-30T12:27:47;11.70;99.90
2100;DHT22;1055;48.854;9.302;2024-01-30T12:30:16;11.80;99.90
2100;DHT22;1055;48.854;9.302;2024-01-30T12:32:44;11.90;99.90
2100;DHT22;1055;48.854;9.302;2024-01-30T12:35:15;11.90;99.90
2100;DHT22;1055;48.854;9.302;2024-01-30T12:37:42;12.10;99.90
2100;DHT22;1055;48.854;9.302;2024-01-30T12:40:09;12.10;99.90
2100;DHT22;1055;48.854;9.302;2024-01-30T12:42:36;12.00;99.90
2100;DHT22;1055;48.854;9.302;2024-01-30T12:45:05;11.90;99.90
2100;DHT22;1055;48.854;9.302;2024-01-30T12:47:31;12.00;99.90
2100;DHT22;1055;48.854;9.302;2024-01-30T12:49:57;12.10;99.90
2100;DHT22;1055;48.854;9.302;2024-01-30T12:52:23;12.10;99.90
2100;DHT22;1055;48.854;9.302;2024-01-30T12:54:49;12.10;99.90
2100;DHT22;1055;48.854;9.302;2024-01-30T12:57:15;12.10;99.90
2100;DHT22;1055;48.854;9.302;2024-01-30T12:59:42;11.80;99.90
2100;DHT22;1055;48.854;9.302;2024-01-30T13:02:07;11.90;99.90
2100;DHT22;1055;48.854;9.302;2024-01-30T13:04:34;11.50;99.90
2100;DHT22;1055;48.854;9.302;2024-01-30T13:07:00;11.00;99.90
2100;DHT22;1055;48.854;9.302;2024-01-30T13:09:29;11.00;99.90
2100;DHT22;1055;48.854;9.302;2024-01-30T13:11:55;11.30;99.90
2100;DHT22;1055;48.854;9.302;2024-01-30T13:14:20;10.70;99.90
2100;DHT22;1055;48.854;9.302;2024-01-30T13:16:46;11.20;99.90
2100;DHT22;1055;48.854;9.302;2024-01-30T13:19:12;11.20;99.90
2100;DHT22;1055;48.854;9.302;2024-01-30T13:21:37;11.50;99.90
2100;DHT22;1055;48.854;9.302;2024-01-30T13:24:03;11.40;99.90
2100;DHT22;1055;48.854;9.302;2024-01-30T13:26:29;11.70;99.90
2100;DHT22;1055;48.854;9.302;2024-01-30T13:28:56;12.10;99.90
2100;DHT22;1055;48.854;9.302;2024-01-30T13:31:22;12.20;99.90
2100;DHT22;1055;48.854;9.302;2024-01-30T13:33:47;12.60;99.90
2100;DHT22;1055;48.854;9.302;2024-01-30T13:36:14;13.00;99.90
2100;DHT22;1055;48.854;9.302;2024-01-30T13:38:40;13.40;99.90
2100;DHT22;1055;48.854;9.302;2024-01-30T13:41:06;13.60;99.90
2100;DHT22;1055;48.854;9.302;2024-01-30T13:43:31;13.90;99.90
2100;DHT22;1055;48.854;9.302;2024-01-30T13:45:57;14.00;99.90
2100;DHT22;1055;48.854;9.302;2024-01-30T13:48:23;14.00;99.90
2100;DHT22;1055;48.854;9.302;2024-01-30T13:50:48;14.00;99.90
2100;DHT22;1055;48.854;9.302;2024-01-30T13:53:14;13.90;99.90
2100;DHT22;1055;48.854;9.302;2024-01-30T13:55:40;13.50;99.90
2100;DHT22;1055;48.854;9.302;2024-01-30T13:58:06;13.50;99.90
2100;DHT22;1055;48.854;9.302;2024-01-30T14:00:32;13.30;99.90
2100;DHT22;1055;48.854;9.302;2024-01-30T14:02:59;13.30;99.90
2100;DHT22;1055;48.854;9.302;2024-01-30T14:05:25;13.60;99.90
2100;DHT22;1055;48.854;9.302;2024-01-30T14:07:51;13.70;99.90
2100;DHT22;1055;48.854;9.302;2024-01-30T14:10:17;13.30;99.90
2100;DHT22;1055;48.854;9.302;2024-01-30T14:12:43;13.40;99.90
2100;DHT22;1055;48.854;9.302;2024-01-30T14:15:10;13.70;99.90
2100;DHT22;1055;48.854;9.302;2024-01-30T14:17:36;13.80;99.90
2100;DHT22;1055;48.854;9.302;2024-01-30T14:20:05;13.80;99.90
2100;DHT22;1055;48.854;9.302;2024-01-30T14:22:33;13.80;99.90
2100;DHT22;1055;48.854;9.302;2024-01-30T14:24:59;13.70;99.90
2100;DHT22;1055;48.854;9.302;2024-01-30T14:27:24;13.70;99.90
2100;DHT22;1055;48.854;9.302;2024-01-30T14:29:50;13.70;99.90
2100;DHT22;1055;48.854;9.302;2024-01-30T14:32:15;13.70;99.90
2100;DHT22;1055;48.854;9.302;2024-01-30T14:34:41;13.60;99.90
2100;DHT22;1055;48.854;9.302;2024-01-30T14:37:07;13.40;99.90
2100;DHT22;1055;48.854;9.302;2024-01-30T14:39:33;13.50;99.90
2100;DHT22;1055;48.854;9.302;2024-01-30T14:41:59;13.50;99.90
2100;DHT22;1055;48.854;9.302;2024-01-30T14:44:25;13.50;99.90
2100;DHT22;1055;48.854;9.302;2024-01-30T14:46:50;13.50;99.90
2100;DHT22;1055;48.854;9.302;2024-01-30T14:49:16;13.50;99.90
2100;DHT22;1055;48.854;9.302;2024-01-30T14:51:42;13.50;99.90
2100;DHT22;1055;48.854;9.302;2024-01-30T14:54:08;13.40;99.90
2100;DHT22;1055;48.854;9.302;2024-01-30T14:59:40;13.00;99.90
2100;DHT22;1055;48.854;9.302;2024-01-30T15:02:06;12.60;99.90
2100;DHT22;1055;48.854;9.302;2024-01-30T15:04:33;12.50;99.90
2100;DHT22;1055;48.854;9.302;2024-01-30T15:07:00;12.40;99.90
2100;DHT22;1055;48.854;9.302;2024-01-30T15:09:26;12.50;99.90
2100;DHT22;1055;48.854;9.302;2024-01-30T15:11:53;12.40;99.90
2100;DHT22;1055;48.854;9.302;2024-01-30T15:14:19;12.40;99.90
2100;DHT22;1055;48.854;9.302;2024-01-30T15:16:44;12.30;99.90
2100;DHT22;1055;48.854;9.302;2024-01-30T15:19:11;12.40;99.90
2100;DHT22;1055;48.854;9.302;2024-01-30T15:21:36;12.40;99.90
2100;DHT22;1055;48.854;9.302;2024-01-30T15:24:02;12.30;99.90
2100;DHT22;1055;48.854;9.302;2024-01-30T15:26:29;12.30;99.90
2100;DHT22;1055;48.854;9.302;2024-01-30T15:28:54;12.10;99.90
2100;DHT22;1055;48.854;9.302;2024-01-30T15:31:20;12.10;99.90
2100;DHT22;1055;48.854;9.302;2024-01-30T15:33:46;12.00;99.90
2100;DHT22;1055;48.854;9.302;2024-01-30T15:36:12;12.10;99.90
2100;DHT22;1055;48.854;9.302;2024-01-30T15:38:39;12.10;99.90
2100;DHT22;1055;48.854;9.302;2024-01-30T15:41:04;12.00;99.90
2100;DHT22;1055;48.854;9.302;2024-01-30T15:43:30;11.70;99.90
2100;DHT22;1055;48.854;9.302;2024-01-30T15:45:58;11.60;99.90
2100;DHT22;1055;48.854;9.302;2024-01-30T15:48:24;11.40;99.90
2100;DHT22;1055;48.854;9.302;2024-01-30T15:50:50;11.50;99.90
2100;DHT22;1055;48.854;9.302;2024-01-30T15:53:15;11.50;99.90
2100;DHT22;1055;48.854;9.302;2024-01-30T15:55:41;11.50;99.90
2100;DHT22;1055;48.854;9.302;2024-01-30T15:58:06;11.70;99.90
2100;DHT22;1055;48.854;9.302;2024-01-30T16:00:32;11.70;99.90
2100;DHT22;1055;48.854;9.302;2024-01-30T16:02:58;11.90;99.90
2100;DHT22;1055;48.854;9.302;2024-01-30T16:05:24;11.90;99.90
2100;DHT22;1055;48.854;9.302;2024-01-30T16:07:49;11.70;99.90
2100;DHT22;1055;48.854;9.302;2024-01-30T16:10:15;11.80;99.90
2100;DHT22;1055;48.854;9.302;2024-01-30T16:12:44;11.90;99.90